Time;durP1;ratioP1;P1;durP2;ratioP2;P2;SDS_P1;SDS_P2;PMS_P1;PMS_P2;Temp;Humidity;BMP_temperature;BMP_pressure;BME280_temperature;BME280_humidity;BME280_pressure;Samples;Min_cycle;Max_cycle;Signal;HPM_P1;HPM_P2
2022/08/10 00:01:15;;;;;;;10.25;5.55;;;;;;;14.31;62.76;99427.72;5031104;28;20075;-75
2022/08/10 00:03:40;;;;;;;9.13;4.78;;;;;;;14.30;62.86;99432.41;5031219;28;20018;-75
2022/08/10 00:06:06;;;;;;;8.77;5.53;;;;;;;14.28;63.01;99424.44;5031308;28;20021;-75
2022/08/10 00:08:31;;;;;;;10.40;6.07;;;;;;;14.27;63.03;99417.28;5031364;28;20084;-75
2022/08/10 00:10:57;;;;;;;8.52;5.40;;;;;;;14.26;62.98;99421.16;5031309;28;20464;-75
2022/08/10 00:13:25;;;;;;;7.53;5.30;;;;;;;14.22;63.10;99425.63;5031433;28;20053;-75
2022/08/10 00:15:51;;;;;;;7.78;5.43;;;;;;;14.20;63.13;99416.03;5031305;28;20029;-75
2022/08/10 00:18:17;;;;;;;8.43;5.38;;;;;;;14.17;63.32;99417.41;5031423;28;20439;-75
2022/08/10 00:20:43;;;;;;;7.30;5.05;;;;;;;14.13;63.18;99413.59;5031236;28;20029;-76
2022/08/10 00:23:08;;;;;;;10.15;5.30;;;;;;;14.12;63.44;99415.56;5030867;28;20044;-75
2022/08/10 00:25:35;;;;;;;7.60;5.13;;;;;;;14.10;63.59;99419.72;5029526;28;20038;-75
2022/08/10 00:28:01;;;;;;;8.52;5.53;;;;;;;14.06;63.45;99411.22;5031417;28;20030;-75
2022/08/10 00:30:26;;;;;;;11.07;5.65;;;;;;;14.04;63.25;99413.47;5030858;28;20037;-75
2022/08/10 00:32:51;;;;;;;9.30;5.45;;;;;;;14.03;63.61;99417.31;5030422;28;20025;-74
2022/08/10 00:35:17;;;;;;;8.35;5.32;;;;;;;14.01;63.77;99410.47;5031280;28;20030;-75
2022/08/10 00:37:42;;;;;;;9.35;5.70;;;;;;;14.01;63.88;99407.72;5030027;28;20112;-75
2022/08/10 00:40:08;;;;;;;8.65;5.47;;;;;;;13.98;63.72;99409.13;5031411;28;20032;-74
2022/08/10 00:42:34;;;;;;;8.38;5.70;;;;;;;13.95;64.03;99410.53;5034903;28;20472;-74
2022/08/10 00:44:59;;;;;;;9.63;5.47;;;;;;;13.97;63.95;99416.59;5034935;28;20052;-74
2022/08/10 00:47:24;;;;;;;9.27;5.60;;;;;;;13.93;63.80;99415.53;5034666;28;20475;-75
2022/08/10 00:49:50;;;;;;;8.35;5.82;;;;;;;13.88;64.02;99410.06;5035174;28;20029;-75
2022/08/10 00:52:18;;;;;;;12.10;6.93;;;;;;;13.91;64.04;99411.41;5033837;28;20041;-75
2022/08/10 00:54:46;;;;;;;8.93;5.80;;;;;;;13.95;64.26;99412.47;5034039;28;20361;-76
2022/08/10 00:57:14;;;;;;;7.97;6.03;;;;;;;13.92;64.33;99416.66;5034556;28;20025;-75
2022/08/10 00:59:40;;;;;;;8.57;5.47;;;;;;;13.86;64.44;99409.56;5034773;28;20018;-75
2022/08/10 01:02:05;;;;;;;7.70;5.40;;;;;;;13.81;64.36;99406.84;5034135;28;20461;-75
2022/08/10 01:04:32;;;;;;;8.55;5.30;;;;;;;13.76;64.40;99407.75;5034837;28;20060;-74
2022/08/10 01:07:31;;;;;;;9.05;4.88;;;;;;;13.72;64.52;99408.59;5034695;28;20024;-74
2022/08/10 01:10:05;;;;;;;9.47;5.10;;;;;;;13.66;64.77;99411.41;5032312;28;20494;-77
2022/08/10 01:12:34;;;;;;;8.23;5.10;;;;;;;13.65;64.67;99414.50;5031546;28;20287;-75
2022/08/10 01:15:16;;;;;;;8.20;5.20;;;;;;;13.61;64.74;99407.91;5032805;28;20141;-78
2022/08/10 01:17:53;;;;;;;8.13;4.68;;;;;;;13.56;64.60;99417.06;5033182;28;20155;-75
2022/08/10 01:20:33;;;;;;;7.15;4.68;;;;;;;13.52;64.97;99402.22;5032341;28;20562;-79
2022/08/10 01:23:26;;;;;;;7.22;4.75;;;;;;;13.51;64.92;99406.09;5033958;28;20450;-79
2022/08/10 01:26:22;;;;;;;9.65;5.03;;;;;;;13.49;64.65;99409.13;5032650;28;20045;-80
2022/08/10 01:29:19;;;;;;;9.90;4.97;;;;;;;13.46;65.10;99401.44;5031739;28;20040;-79
2022/08/10 01:31:50;;;;;;;9.05;5.35;;;;;;;13.44;64.93;99411.13;5028395;28;20036;-79
2022/08/10 01:34:26;;;;;;;7.07;4.82;;;;;;;13.42;65.22;99410.59;5032088;28;20510;-80
2022/08/10 01:36:58;;;;;;;7.60;5.10;;;;;;;13.43;65.28;99406.72;5030316;28;20025;-79
2022/08/10 01:39:32;;;;;;;8.38;4.93;;;;;;;13.42;65.26;99410.59;5032911;28;20356;-80
2022/08/10 01:42:00;;;;;;;8.32;5.00;;;;;;;13.40;65.54;99411.69;5032764;28;20034;-79
2022/08/10 01:44:33;;;;;;;7.68;4.82;;;;;;;13.39;65.27;99410.03;5032595;28;20088;-79
2022/08/10 01:48:27;;;;;;;8.27;5.22;;;;;;;13.37;65.11;99404.00;5032616;28;20406;-80
2022/08/10 01:49:51;;;;;;;8.38;5.15;;;;;;;13.35;65.27;99416.44;5032926;28;20036;-80
2022/08/10 01:52:21;;;;;;;8.13;5.32;;;;;;;13.30;65.48;99409.03;5031495;28;20018;-79
2022/08/10 01:54:48;;;;;;;7.47;5.35;;;;;;;13.30;65.63;99410.97;5032567;28;20033;-80
2022/08/10 01:57:16;;;;;;;9.98;5.35;;;;;;;13.31;65.37;99407.09;5032704;28;20100;-79
2022/08/10 01:59:43;;;;;;;9.88;5.53;;;;;;;13.29;65.66;99410.13;5032895;28;20083;-79
2022/08/10 02:02:12;;;;;;;9.20;5.78;;;;;;;13.26;65.65;99407.97;5031853;28;20026;-79
2022/08/10 02:04:42;;;;;;;9.63;6.43;;;;;;;13.24;66.04;99400.00;5032535;28;20026;-80
2022/08/10 02:07:13;;;;;;;9.38;5.97;;;;;;;13.23;66.06;99403.06;5032210;28;20017;-80
2022/08/10 02:09:44;;;;;;;9.95;5.78;;;;;;;13.20;66.11;99398.94;5032313;28;20033;-80
2022/08/10 02:12:13;;;;;;;10.50;6.35;;;;;;;13.19;66.12;99394.53;5032342;28;20471;-79
2022/08/10 02:14:54;;;;;;;10.82;5.90;;;;;;;13.18;66.21;99400.34;5032296;28;20041;-80
2022/08/10 02:17:25;;;;;;;10.35;5.70;;;;;;;13.16;66.08;99410.84;5032189;28;20104;-80
2022/08/10 02:19:55;;;;;;;8.55;5.43;;;;;;;13.13;66.24;99400.41;5032276;28;20024;-80
2022/08/10 02:22:22;;;;;;;10.00;6.10;;;;;;;13.11;66.20;99400.69;5031909;28;20021;-80
2022/08/10 02:24:49;;;;;;;7.90;5.63;;;;;;;13.10;66.22;99405.38;5032124;28;20112;-79
2022/08/10 02:27:16;;;;;;;9.95;6.30;;;;;;;13.10;66.40;99408.13;5030749;28;20037;-80
2022/08/10 02:29:46;;;;;;;10.20;6.00;;;;;;;13.09;66.20;99403.72;5032207;28;20052;-80
2022/08/10 02:32:12;;;;;;;13.07;6.47;;;;;;;13.07;66.29;99413.38;5031673;28;20467;-79
2022/08/10 02:34:38;;;;;;;9.23;6.35;;;;;;;13.05;66.74;99416.44;5031677;28;20067;-79
2022/08/10 02:37:07;;;;;;;9.02;6.13;;;;;;;13.02;66.73;99427.22;5031937;28;20349;-79
2022/08/10 02:39:35;;;;;;;12.15;6.93;;;;;;;13.00;66.38;99426.69;5032572;28;20021;-80
2022/08/10 02:42:07;;;;;;;11.13;6.22;;;;;;;12.98;66.87;99426.16;5032613;28;20036;-79
2022/08/10 02:44:53;;;;;;;8.23;6.18;;;;;;;12.94;66.15;99425.88;5031062;28;20048;-79
2022/08/10 02:47:43;;;;;;;11.45;6.47;;;;;;;12.93;66.23;99424.25;5027121;28;20411;-79
2022/08/10 02:50:08;;;;;;;;;;;;;;;12.90;66.40;99433.06;5033041;28;20090;-79
2022/08/10 02:52:49;;;;;;;15.38;8.82;;;;;;;12.86;66.45;99438.34;5031800;28;20371;-79
2022/08/10 02:55:36;;;;;;;12.68;7.25;;;;;;;12.83;66.56;99440.88;5032606;28;20044;-79
2022/08/10 02:58:09;;;;;;;12.73;7.63;;;;;;;12.80;67.12;99440.31;5032090;28;20033;-79
2022/08/10 03:00:41;;;;;;;14.90;7.03;;;;;;;12.79;66.97;99441.44;5030914;28;20039;-79
2022/08/10 03:03:10;;;;;;;13.18;6.93;;;;;;;12.78;67.17;99439.78;5031496;28;20061;-79
2022/08/10 03:05:35;;;;;;;12.95;7.10;;;;;;;12.75;67.23;99423.00;5030927;28;20029;-79
2022/08/10 03:08:04;;;;;;;12.30;7.38;;;;;;;12.78;67.34;99434.28;5032328;28;20026;-79
2022/08/10 03:10:35;;;;;;;11.00;7.63;;;;;;;12.77;67.53;99429.88;5032009;28;20025;-79
2022/08/10 03:13:04;;;;;;;10.80;7.65;;;;;;;12.78;67.08;99428.78;5031708;28;20060;-80
2022/08/10 03:15:32;;;;;;;13.93;8.15;;;;;;;12.79;67.40;99435.94;5032487;28;20029;-79
2022/08/10 03:17:58;;;;;;;11.05;8.10;;;;;;;12.79;67.35;99433.19;5031959;28;20035;-80
2022/08/10 03:20:27;;;;;;;14.77;8.18;;;;;;;12.80;67.08;99437.56;5031646;28;20080;-80
2022/08/10 03:22:54;;;;;;;13.63;9.43;;;;;;;12.80;67.20;99442.25;5031170;28;20025;-80
2022/08/10 03:25:22;;;;;;;16.27;10.50;;;;;;;12.78;67.33;99430.69;5030408;28;20021;-80
2022/08/10 03:27:49;;;;;;;12.07;8.35;;;;;;;12.78;67.47;99437.03;5031366;28;20104;-80
2022/08/10 03:30:15;;;;;;;13.27;8.15;;;;;;;12.77;67.57;99446.41;5031708;28;20036;-79
2022/08/10 03:32:42;;;;;;;12.80;7.68;;;;;;;12.80;67.61;99445.00;5030881;28;20060;-80
2022/08/10 03:35:10;;;;;;;13.52;7.78;;;;;;;12.82;67.81;99447.47;5031506;28;20029;-79
2022/08/10 03:37:36;;;;;;;12.27;6.78;;;;;;;12.83;67.94;99449.94;5031532;28;20029;-79
2022/08/10 03:40:02;;;;;;;13.52;7.70;;;;;;;12.82;68.09;99451.03;5031562;28;20083;-79
2022/08/10 03:42:30;;;;;;;12.27;6.95;;;;;;;12.85;67.93;99450.47;5031144;28;20048;-80
2022/08/10 03:44:57;;;;;;;12.30;7.05;;;;;;;12.85;68.00;99447.72;5031535;28;20049;-79
2022/08/10 03:47:24;;;;;;;10.90;7.10;;;;;;;12.86;67.51;99448.53;5031267;28;20025;-80
2022/08/10 03:49:50;;;;;;;11.15;7.10;;;;;;;12.88;68.22;99446.31;5031314;28;20059;-80
2022/08/10 03:52:17;;;;;;;17.05;8.52;;;;;;;12.91;67.76;99448.47;5028849;28;20450;-79
2022/08/10 03:54:44;;;;;;;12.93;7.43;;;;;;;12.93;68.16;99449.03;5031519;28;20372;-80
2022/08/10 03:57:11;;;;;;;14.10;8.07;;;;;;;12.96;67.99;99453.97;5031533;28;20040;-80
2022/08/10 03:59:37;;;;;;;12.20;7.68;;;;;;;12.95;68.01;99453.16;5031152;28;20029;-79
2022/08/10 04:02:05;;;;;;;11.82;7.20;;;;;;;12.94;67.82;99453.41;5029828;28;20030;-79
2022/08/10 04:04:31;;;;;;;12.95;7.60;;;;;;;12.97;68.30;99455.59;5031249;28;20384;-80
2022/08/10 04:06:58;;;;;;;12.32;8.00;;;;;;;12.99;67.84;99456.13;5030903;28;20026;-80
2022/08/10 04:09:29;;;;;;;14.70;8.10;;;;;;;13.02;67.83;99466.56;5031039;28;20021;-80
2022/08/10 04:11:55;;;;;;;11.88;7.43;;;;;;;13.05;68.00;99454.16;5031084;28;20415;-80
2022/08/10 04:14:20;;;;;;;13.13;8.25;;;;;;;13.09;68.37;99460.72;5031660;28;20055;-80
2022/08/10 04:16:46;;;;;;;15.40;8.32;;;;;;;13.14;68.35;99457.13;5034924;28;20030;-80
2022/08/10 04:19:14;;;;;;;13.90;8.40;;;;;;;13.19;68.02;99459.84;5034538;28;20036;-79
2022/08/10 04:21:43;;;;;;;15.43;8.05;;;;;;;13.24;68.22;99460.59;5033340;28;20029;-80
2022/08/10 04:24:14;;;;;;;12.50;8.73;;;;;;;13.31;68.51;99468.53;5034391;28;20029;-79
2022/08/10 04:26:41;;;;;;;13.63;8.10;;;;;;;13.37;68.15;99472.06;5033496;28;20025;-79
2022/08/10 04:29:06;;;;;;;15.07;8.50;;;;;;;13.44;68.37;99478.09;5034742;28;20040;-80
2022/08/10 04:31:33;;;;;;;14.48;8.18;;;;;;;13.50;68.39;99465.09;5034403;28;20025;-80
2022/08/10 04:34:00;;;;;;;11.88;7.70;;;;;;;13.57;68.27;99456.47;5034296;28;20048;-80
2022/08/10 04:36:27;;;;;;;13.88;7.55;;;;;;;13.64;68.37;99471.56;5034572;28;20065;-79
2022/08/10 04:38:54;;;;;;;13.27;7.60;;;;;;;13.70;68.46;99467.63;5034914;28;20033;-79
2022/08/10 04:41:20;;;;;;;12.63;8.18;;;;;;;13.79;68.08;99478.00;5034564;28;20475;-79
2022/08/10 04:43:46;;;;;;;15.27;8.27;;;;;;;13.85;68.46;99476.84;5034039;28;20492;-80
2022/08/10 04:46:12;;;;;;;12.98;8.35;;;;;;;13.92;68.26;99477.31;5034782;28;20031;-80
2022/08/10 04:48:37;;;;;;;12.43;8.23;;;;;;;13.99;68.33;99480.56;5034677;28;20067;-80
2022/08/10 04:51:03;;;;;;;14.20;8.13;;;;;;;14.07;68.56;99469.94;5034113;28;20026;-79
2022/08/10 04:53:28;;;;;;;13.02;7.40;;;;;;;14.12;68.05;99475.41;5034042;28;20037;-80
2022/08/10 04:55:54;;;;;;;12.63;7.82;;;;;;;14.18;68.12;99474.22;5034503;28;20155;-80
2022/08/10 04:58:19;;;;;;;13.93;7.65;;;;;;;14.26;68.27;99479.09;5034601;28;20030;-79
2022/08/10 05:00:45;;;;;;;12.73;6.78;;;;;;;14.33;68.02;99475.16;5034093;28;20033;-79
2022/08/10 05:03:10;;;;;;;11.93;6.93;;;;;;;14.38;68.10;99473.16;5033840;28;20037;-79
2022/08/10 05:05:35;;;;;;;10.90;6.57;;;;;;;14.45;68.01;99478.31;5034395;28;20044;-79
2022/08/10 05:08:01;;;;;;;10.52;6.78;;;;;;;14.51;67.97;99473.53;5034129;28;20021;-79
2022/08/10 05:10:26;;;;;;;12.98;6.57;;;;;;;14.59;68.18;99484.72;5034014;28;20030;-79
2022/08/10 05:12:52;;;;;;;11.32;7.00;;;;;;;14.66;68.27;99483.53;5033537;28;20040;-79
2022/08/10 05:15:18;;;;;;;10.63;6.07;;;;;;;14.73;68.22;99482.06;5033851;28;20029;-79
2022/08/10 05:17:44;;;;;;;12.43;6.57;;;;;;;14.79;68.23;99488.34;5034358;28;20021;-79
2022/08/10 05:20:11;;;;;;;8.50;5.88;;;;;;;14.87;67.91;99482.16;5033502;28;20100;-79
2022/08/10 05:22:40;;;;;;;12.15;5.85;;;;;;;14.95;67.72;99488.09;5033498;28;20104;-79
2022/08/10 05:25:09;;;;;;;10.65;5.53;;;;;;;15.02;67.75;99480.25;5034141;28;20692;-79
2022/08/10 05:27:34;;;;;;;13.27;6.15;;;;;;;15.12;68.04;99490.31;5034466;28;20483;-79
2022/08/10 05:30:00;;;;;;;10.43;5.60;;;;;;;15.17;67.79;99484.72;5032907;28;20083;-79
2022/08/10 05:32:25;;;;;;;8.77;5.57;;;;;;;15.24;67.87;99496.19;5033107;28;20029;-80
2022/08/10 05:34:51;;;;;;;7.45;5.45;;;;;;;15.30;67.95;99488.63;5034551;28;20068;-80
2022/08/10 05:37:18;;;;;;;10.18;5.75;;;;;;;15.37;67.54;99488.25;5033951;28;20072;-80
2022/08/10 05:39:45;;;;;;;7.03;5.22;;;;;;;15.44;67.47;99492.25;5034048;28;20024;-80
2022/08/10 05:42:10;;;;;;;8.60;5.55;;;;;;;15.51;67.55;99488.28;5033481;28;20024;-79
2022/08/10 05:44:36;;;;;;;8.45;5.03;;;;;;;15.58;67.37;99494.25;5033692;28;20369;-80
2022/08/10 05:47:01;;;;;;;9.25;5.55;;;;;;;15.65;67.75;99491.91;5033778;28;20118;-79
2022/08/10 05:49:27;;;;;;;8.05;4.93;;;;;;;15.72;67.41;99489.53;5034036;28;20021;-80
2022/08/10 05:51:52;;;;;;;8.70;5.20;;;;;;;15.80;67.70;99484.44;5033265;28;20052;-81
2022/08/10 05:54:18;;;;;;;8.52;5.60;;;;;;;15.87;67.45;99485.72;5033299;28;20029;-80
2022/08/10 05:56:46;;;;;;;11.63;6.28;;;;;;;15.93;67.76;99487.22;5033843;28;20022;-80
2022/08/10 05:59:13;;;;;;;9.75;5.85;;;;;;;16.01;67.59;99482.13;5033475;28;20104;-80
2022/08/10 06:01:42;;;;;;;8.35;5.38;;;;;;;16.10;67.33;99493.31;5033262;28;20037;-80
2022/08/10 06:04:12;;;;;;;11.07;5.85;;;;;;;16.18;67.37;99492.56;5033288;28;20026;-80
2022/08/10 06:06:39;;;;;;;7.88;5.55;;;;;;;16.27;67.31;99489.91;5033297;28;20032;-80
2022/08/10 06:09:06;;;;;;;9.25;5.30;;;;;;;16.34;67.29;99493.91;5033263;28;20029;-80
2022/08/10 06:11:33;;;;;;;8.63;5.38;;;;;;;16.41;67.10;99496.22;5031941;28;20033;-79
2022/08/10 06:16:44;;;;;;;7.45;5.00;;;;;;;16.61;66.94;99503.28;5032640;28;20095;-80
2022/08/10 06:19:13;;;;;;;9.13;4.65;;;;;;;16.70;66.71;99500.59;5032448;28;20037;-80
2022/08/10 06:21:39;;;;;;;7.82;4.57;;;;;;;16.79;66.80;99501.47;5032730;28;20083;-80
2022/08/10 06:24:09;;;;;;;9.13;4.68;;;;;;;16.89;66.65;99505.16;5032243;28;20021;-85
2022/08/10 06:26:35;;;;;;;10.32;4.65;;;;;;;16.99;66.43;99509.66;5030243;28;20120;-81
2022/08/10 06:29:08;;;;;;;6.85;4.50;;;;;;;17.08;66.70;99508.63;5031963;28;20063;-82
2022/08/10 06:31:43;;;;;;;8.13;4.60;;;;;;;17.18;66.46;99510.31;5032084;28;20036;-80
2022/08/10 06:34:16;;;;;;;9.45;4.70;;;;;;;17.27;66.30;99513.13;5031314;28;20116;-79
2022/08/10 06:36:43;;;;;;;9.10;4.03;;;;;;;17.37;66.40;99504.56;5027762;28;20467;-86
2022/08/10 06:39:09;;;;;;;8.63;4.70;;;;;;;17.46;66.36;99507.41;5023442;28;20026;-82
2022/08/10 06:41:40;;;;;;;6.88;4.60;;;;;;;17.55;65.94;99505.50;5029448;28;20100;-82
2022/08/10 06:44:10;;;;;;;6.47;4.30;;;;;;;17.65;66.10;99509.16;5028533;28;20075;-78
2022/08/10 06:46:38;;;;;;;7.70;4.75;;;;;;;17.74;65.83;99500.84;5030001;28;20029;-79
2022/08/10 06:49:08;;;;;;;7.60;5.05;;;;;;;17.82;66.07;99500.88;5029580;28;20666;-78
2022/08/10 06:51:36;;;;;;;7.80;4.82;;;;;;;17.91;65.94;99506.50;5029759;28;20394;-78
2022/08/10 06:54:05;;;;;;;8.60;4.60;;;;;;;17.98;65.68;99511.59;5030511;28;20025;-80
2022/08/10 06:56:35;;;;;;;8.07;4.47;;;;;;;18.06;65.63;99502.50;5031109;28;20771;-81
2022/08/10 06:59:15;;;;;;;13.05;4.78;;;;;;;18.14;65.54;99498.13;5028754;28;20453;-82
2022/08/10 07:01:43;;;;;;;8.50;4.00;;;;;;;18.20;65.23;99502.38;5028912;28;20060;-81
2022/08/10 07:04:37;;;;;;;7.50;4.18;;;;;;;18.28;65.22;99504.38;5031402;28;20233;-80
2022/08/10 07:07:05;;;;;;;11.48;5.00;;;;;;;18.37;65.15;99496.06;5022962;28;20038;-79
2022/08/10 07:09:36;;;;;;;8.57;4.22;;;;;;;18.47;65.01;99494.13;5030155;28;20029;-80
2022/08/10 07:12:03;;;;;;;6.60;3.90;;;;;;;18.55;65.04;99496.06;5027978;28;20017;-85
2022/08/10 07:14:30;;;;;;;7.28;3.70;;;;;;;18.65;64.60;99506.88;5029105;28;20025;-83
2022/08/10 07:16:58;;;;;;;6.93;3.50;;;;;;;18.73;64.50;99489.41;5030035;28;20029;-82
2022/08/10 07:19:25;;;;;;;5.45;3.60;;;;;;;18.84;64.05;99495.47;5028358;28;20022;-82
2022/08/10 07:21:52;;;;;;;6.60;3.33;;;;;;;18.93;63.79;99498.25;5027933;28;20108;-81
2022/08/10 07:24:20;;;;;;;7.53;3.97;;;;;;;18.99;63.43;99487.81;5025668;28;20048;-80
2022/08/10 07:26:48;;;;;;;5.78;3.50;;;;;;;19.05;63.22;99500.41;5028075;28;20155;-82
2022/08/10 07:29:15;;;;;;;5.90;3.30;;;;;;;19.15;62.94;99505.66;5029554;28;20112;-83
2022/08/10 07:31:42;;;;;;;6.72;3.03;;;;;;;19.25;62.50;99501.69;5029648;28;20529;-82
2022/08/10 07:34:08;;;;;;;5.75;2.70;;;;;;;19.37;62.38;99502.97;5029135;28;20025;-82
2022/08/10 07:36:38;;;;;;;4.63;2.63;;;;;;;19.46;61.80;99495.44;5027889;28;20033;-82
2022/08/10 07:39:06;;;;;;;3.78;2.50;;;;;;;19.55;61.22;99496.22;5030869;28;20058;-85
2022/08/10 07:41:33;;;;;;;6.07;3.85;;;;;;;19.63;60.62;99489.84;5029522;28;20059;-82
2022/08/10 07:44:04;;;;;;;4.35;3.05;;;;;;;19.71;60.85;99495.72;5028856;28;20534;-81
2022/08/10 07:46:32;;;;;;;5.35;3.08;;;;;;;19.82;60.26;99493.38;5029952;28;20036;-83
2022/08/10 07:49:11;;;;;;;4.13;2.58;;;;;;;19.96;60.33;99504.31;5027477;28;20102;-83
2022/08/10 07:51:38;;;;;;;4.22;2.47;;;;;;;20.04;59.61;99501.50;5027895;28;20041;-83
2022/08/10 07:54:06;;;;;;;4.25;2.50;;;;;;;20.10;59.05;99501.31;5027797;28;20021;-83
2022/08/10 07:56:36;;;;;;;6.82;2.75;;;;;;;20.15;58.49;99498.34;5028013;28;20051;-77
2022/08/10 07:59:07;;;;;;;4.03;2.50;;;;;;;20.19;57.24;99486.19;5025974;28;20471;-78
2022/08/10 08:01:35;;;;;;;4.30;2.10;;;;;;;20.23;57.16;99495.50;5025979;28;20029;-79
2022/08/10 08:04:01;;;;;;;5.50;2.38;;;;;;;20.25;57.05;99489.59;5023512;28;20033;-80
2022/08/10 08:06:31;;;;;;;3.95;2.38;;;;;;;20.31;57.37;99490.22;5027716;28;20033;-79
2022/08/10 08:08:59;;;;;;;3.95;2.35;;;;;;;20.42;57.57;99494.25;5026342;28;20390;-78
2022/08/10 08:11:26;;;;;;;4.35;2.28;;;;;;;20.53;57.05;99495.50;5028474;28;20025;-78
2022/08/10 08:13:53;;;;;;;4.70;2.30;;;;;;;20.60;55.65;99492.16;5027944;28;20026;-81
2022/08/10 08:16:20;;;;;;;2.78;2.08;;;;;;;20.66;56.18;99501.97;5028954;28;20053;-78
2022/08/10 08:18:48;;;;;;;4.28;2.35;;;;;;;20.74;55.91;99499.47;5028540;28;20033;-78
2022/08/10 08:21:14;;;;;;;3.22;2.03;;;;;;;20.81;55.11;99497.78;5028441;28;20053;-79
2022/08/10 08:23:41;;;;;;;5.63;2.40;;;;;;;20.87;54.46;99492.00;5028481;28;20079;-79
2022/08/10 08:26:10;;;;;;;6.53;2.40;;;;;;;20.92;54.13;99494.59;5029151;28;20037;-79
2022/08/10 08:28:36;;;;;;;5.30;2.90;;;;;;;20.97;54.25;99486.84;5028255;28;20537;-79
2022/08/10 08:31:03;;;;;;;4.85;2.70;;;;;;;21.06;54.26;99491.53;5027808;28;20108;-79
2022/08/10 08:33:32;;;;;;;5.93;3.20;;;;;;;21.14;53.89;99487.00;5027477;28;20033;-78
2022/08/10 08:35:59;;;;;;;6.13;3.30;;;;;;;21.19;53.58;99493.22;5028673;28;20112;-77
2022/08/10 08:38:26;;;;;;;6.05;3.33;;;;;;;21.27;53.72;99481.13;5028237;28;20025;-78
2022/08/10 08:41:16;;;;;;;7.05;4.68;;;;;;;21.39;53.23;99487.91;5028485;28;20528;-79
2022/08/10 08:43:48;;;;;;;6.43;3.78;;;;;;;21.48;52.18;99487.81;5025976;28;20045;-78
2022/08/10 08:46:37;;;;;;;8.50;3.67;;;;;;;21.56;52.74;99487.75;5027634;28;20045;-78
2022/08/10 08:49:21;;;;;;;5.40;2.95;;;;;;;21.66;52.84;99478.13;5028537;28;20025;-77
2022/08/10 08:52:10;;;;;;;8.23;3.33;;;;;;;21.87;52.08;99485.59;5027591;28;20029;-78
2022/08/10 08:55:08;;;;;;;5.50;3.17;;;;;;;21.98;51.02;99481.19;5026082;28;20030;-80
2022/08/10 08:58:04;;;;;;;7.93;2.97;;;;;;;22.06;51.13;99485.03;5027952;28;20025;-80
2022/08/10 09:00:44;;;;;;;5.35;2.63;;;;;;;22.15;51.09;99488.53;5033463;28;20789;-80
2022/08/10 09:03:12;;;;;;;5.80;2.60;;;;;;;22.27;50.76;99484.09;5032603;28;20029;-78
2022/08/10 09:06:14;;;;;;;4.80;2.83;;;;;;;22.43;51.12;99478.63;5033109;28;20449;-78
2022/08/10 09:08:58;;;;;;;5.38;2.40;;;;;;;22.60;49.80;99475.59;5032932;28;20037;-78
2022/08/10 09:11:40;;;;;;;4.95;2.25;;;;;;;22.72;49.84;99477.56;5031082;28;20041;-79
2022/08/10 09:14:34;;;;;;;5.20;2.45;;;;;;;22.81;49.66;99473.81;5030706;28;20125;-77
2022/08/10 09:17:18;;;;;;;4.53;2.40;;;;;;;22.94;48.08;99475.38;5027497;28;20582;-78
2022/08/10 09:19:54;;;;;;;2.60;2.40;;;;;;;23.10;49.05;99478.22;5028612;28;20450;-77
2022/08/10 09:22:31;;;;;;;3.92;2.00;;;;;;;23.17;48.42;99472.03;5027353;28;20064;-78
2022/08/10 09:25:15;;;;;;;5.15;2.22;;;;;;;23.20;47.96;99472.13;5029811;28;20033;-77
2022/08/10 09:27:47;;;;;;;5.43;2.70;;;;;;;23.39;47.99;99470.69;5030543;28;20037;-76
2022/08/10 09:30:31;;;;;;;7.07;2.05;;;;;;;23.61;47.46;99474.88;5031261;28;20068;-77
2022/08/10 09:33:22;;;;;;;6.00;2.35;;;;;;;23.66;47.51;99475.75;5033172;28;20025;-77
2022/08/10 09:36:12;;;;;;;5.63;2.20;;;;;;;23.52;46.25;99465.81;5032296;28;20137;-77
2022/08/10 09:39:02;;;;;;;4.43;2.20;;;;;;;23.42;46.17;99472.75;5031906;28;20044;-78
2022/08/10 09:42:09;;;;;;;3.28;2.05;;;;;;;23.37;46.29;99466.59;5029294;28;20033;-76
2022/08/10 09:44:52;;;;;;;4.13;2.28;;;;;;;23.32;45.24;99468.47;5024492;28;20041;-75
2022/08/10 09:47:57;;;;;;;5.32;2.20;;;;;;;23.27;46.30;99467.94;5032200;28;20037;-78
2022/08/10 09:50:49;;;;;;;4.70;2.00;;;;;;;23.35;46.24;99469.75;5027640;28;20399;-78
2022/08/10 09:53:38;;;;;;;3.15;2.20;;;;;;;23.44;45.62;99456.38;5009929;28;20033;-78
2022/08/10 09:56:03;;;;;;;;;;;;;;;23.52;44.82;99456.59;5031464;28;20071;-77
2022/08/10 09:59:03;;;;;;;5.00;2.22;;;;;;;23.55;44.88;99459.50;5031309;28;19917;-74
2022/08/10 10:01:50;;;;;;;3.53;2.33;;;;;;;23.60;45.07;99453.63;5030099;28;20034;-79
2022/08/10 10:04:29;;;;;;;4.93;2.17;;;;;;;23.56;44.95;99449.94;5026347;28;20122;-78
2022/08/10 10:06:59;;;;;;;4.22;2.22;;;;;;;23.52;44.93;99453.78;5029535;28;20034;-79
2022/08/10 10:09:58;;;;;;;3.25;2.30;;;;;;;23.51;45.00;99453.00;5032071;28;20500;-79
2022/08/10 10:12:32;;;;;;;;;;;;;;;23.52;45.04;99448.19;5026121;28;20041;-77
2022/08/10 10:15:19;;;;;;;4.05;2.13;;;;;;;23.51;45.08;99450.19;5031216;28;20390;-78
2022/08/10 10:18:04;;;;;;;3.10;1.95;;;;;;;23.48;45.01;99448.09;5027536;28;20051;-81
2022/08/10 10:20:35;;;;;;;4.90;2.22;;;;;;;23.46;44.78;99437.25;5030630;28;20022;-78
2022/08/10 10:23:17;;;;;;;5.82;2.28;;;;;;;23.56;45.12;99438.72;5030106;28;20063;-78
2022/08/10 10:26:14;;;;;;;6.88;2.17;;;;;;;23.66;45.02;99437.38;5028402;28;20017;-78
2022/08/10 10:29:07;;;;;;;5.63;2.28;;;;;;;23.77;44.36;99432.84;5030207;28;20124;-78
2022/08/10 10:31:56;;;;;;;2.97;2.28;;;;;;;23.91;44.76;99424.00;5030522;28;20036;-77
2022/08/10 10:35:09;;;;;;;5.25;2.10;;;;;;;24.10;44.58;99424.44;5030721;28;20057;-77
2022/08/10 10:37:36;;;;;;;3.03;2.10;;;;;;;24.22;44.01;99413.94;5025648;28;20108;-77
2022/08/10 10:40:04;;;;;;;3.30;2.22;;;;;;;24.36;44.35;99424.66;5029266;28;20062;-78
2022/08/10 10:42:44;;;;;;;3.55;2.40;;;;;;;24.59;44.29;99418.34;5026609;28;20056;-77
2022/08/10 10:45:13;;;;;;;4.10;2.03;;;;;;;24.77;43.08;99417.91;5030861;28;20033;-78
2022/08/10 10:47:52;;;;;;;5.78;2.40;;;;;;;24.90;42.98;99416.59;5057813;28;20021;-77
2022/08/10 10:50:33;;;;;;;4.28;2.38;;;;;;;25.06;43.19;99418.53;5026530;28;20029;-76
2022/08/10 10:53:20;;;;;;;5.47;2.30;;;;;;;25.25;42.57;99420.47;5029199;28;20025;-77
2022/08/10 10:55:59;;;;;;;4.22;2.08;;;;;;;25.39;42.09;99409.50;5029008;28;20025;-77
2022/08/10 10:58:35;;;;;;;6.75;2.20;;;;;;;25.52;42.72;99415.75;5028224;28;20097;-83
2022/08/10 11:01:04;;;;;;;3.35;2.10;;;;;;;25.59;40.65;99411.47;5030371;28;20148;-82
2022/08/10 11:03:46;;;;;;;2.40;2.20;;;;;;;25.53;40.95;99406.16;5030023;28;20021;-79
2022/08/10 11:06:27;;;;;;;3.38;1.90;;;;;;;25.49;40.58;99412.91;5030503;28;20074;-80
2022/08/10 11:08:59;;;;;;;1.98;1.77;;;;;;;25.56;40.20;99410.22;5030438;28;20505;-79
2022/08/10 11:11:30;;;;;;;6.53;2.22;;;;;;;25.59;39.80;99406.66;5030699;28;20033;-86
2022/08/10 11:14:13;;;;;;;3.40;1.80;;;;;;;25.69;39.15;99391.97;5029457;28;20021;-80
2022/08/10 11:16:46;;;;;;;3.30;2.40;;;;;;;25.81;39.96;99399.41;5030141;28;20025;-83
2022/08/10 11:19:29;;;;;;;4.22;2.17;;;;;;;25.91;39.07;99408.38;5030291;28;20051;-83
2022/08/10 11:22:00;;;;;;;3.22;2.42;;;;;;;26.00;39.82;99400.47;5029780;28;20029;-81
2022/08/10 11:24:37;;;;;;;2.75;2.20;;;;;;;26.03;38.92;99399.72;5029869;28;20029;-82
2022/08/10 11:27:18;;;;;;;7.18;2.30;;;;;;;26.00;39.11;99404.13;5029682;28;20033;-82
2022/08/10 11:29:55;;;;;;;5.78;2.20;;;;;;;25.98;39.63;99400.88;5028676;28;20051;-84
2022/08/10 11:32:31;;;;;;;4.32;2.25;;;;;;;26.03;39.66;99399.72;5029387;28;20651;-82
2022/08/10 11:35:28;;;;;;;4.03;2.08;;;;;;;26.10;39.49;99402.66;5029370;28;20483;-82
2022/08/10 11:38:06;;;;;;;4.82;1.85;;;;;;;26.21;39.91;99393.59;5029892;28;20522;-84
2022/08/10 11:40:52;;;;;;;2.55;1.77;;;;;;;26.27;38.63;99386.47;5029714;28;20108;-80
2022/08/10 11:43:26;;;;;;;4.32;2.00;;;;;;;26.18;38.58;99388.75;5029101;28;20117;-81
2022/08/10 11:46:18;;;;;;;3.67;1.75;;;;;;;26.09;38.84;99392.59;5029968;28;20064;-84
2022/08/10 11:48:55;;;;;;;4.85;2.20;;;;;;;26.06;39.12;99389.75;5028652;28;20079;-83
2022/08/10 11:51:35;;;;;;;5.60;2.10;;;;;;;26.05;39.15;99400.16;5029944;28;20045;-83
2022/08/10 11:54:23;;;;;;;3.65;2.30;;;;;;;25.96;39.04;99397.63;5029573;28;20037;-82
2022/08/10 11:56:56;;;;;;;4.10;2.10;;;;;;;25.91;39.57;99392.34;5040000;28;20055;-83
2022/08/10 12:02:14;;;;;;;3.13;2.20;;;;;;;26.14;39.62;99394.28;5026374;28;20067;-83